createdAt,value
2023-03-31T00:01:08.145Z,6.50
2023-03-31T00:03:38.920Z,6.40
2023-03-31T00:06:06.429Z,6.40
2023-03-31T00:08:37.202Z,6.50
2023-03-31T00:11:07.416Z,6.50
2023-03-31T00:16:09.498Z,6.50
2023-03-31T00:18:37.857Z,6.40
2023-03-31T00:21:24.368Z,6.30
2023-03-31T00:24:02.560Z,6.20
2023-03-31T00:26:30.738Z,6.10
2023-03-31T00:28:58.948Z,6.00
2023-03-31T00:31:27.558Z,6.00
2023-03-31T00:33:56.039Z,5.90
2023-03-31T00:36:29.141Z,5.80
2023-03-31T00:39:09.533Z,5.80
2023-03-31T00:41:39.094Z,5.80
2023-03-31T00:44:18.870Z,5.80
2023-03-31T00:47:29.650Z,5.80
2023-03-31T00:49:58.681Z,5.80
2023-03-31T00:52:37.433Z,5.80
2023-03-31T00:55:16.640Z,5.80
2023-03-31T00:57:47.939Z,5.80
2023-03-31T01:00:18.224Z,5.90
2023-03-31T01:02:58.122Z,6.00
2023-03-31T01:05:35.932Z,6.20
2023-03-31T01:08:05.997Z,6.40
2023-03-31T01:10:47.042Z,6.40
2023-03-31T01:13:16.976Z,6.50
2023-03-31T01:15:44.677Z,6.30
2023-03-31T01:18:14.613Z,6.30
2023-03-31T01:21:34.013Z,6.50
2023-03-31T01:24:51.785Z,6.50
2023-03-31T01:27:44.300Z,6.50
2023-03-31T01:31:07.369Z,6.40
2023-03-31T01:34:44.006Z,6.40
2023-03-31T01:38:16.727Z,6.30
2023-03-31T01:41:18.591Z,6.30
2023-03-31T01:44:51.279Z,6.40
2023-03-31T01:47:42.111Z,6.40
2023-03-31T01:50:33.998Z,6.40
2023-03-31T01:53:31.929Z,6.40
2023-03-31T01:59:24.051Z,6.30
2023-03-31T02:01:57.274Z,6.40
2023-03-31T02:04:42.292Z,6.50
2023-03-31T02:07:20.092Z,6.50
2023-03-31T02:09:57.284Z,6.60
2023-03-31T02:12:28.956Z,6.60
2023-03-31T02:14:58.763Z,6.60
2023-03-31T02:17:30.168Z,6.60
2023-03-31T02:20:06.189Z,6.60
2023-03-31T02:22:40.191Z,6.50
2023-03-31T02:25:15.665Z,6.40
2023-03-31T02:27:51.612Z,6.40
2023-03-31T02:30:18.718Z,6.50
2023-03-31T02:32:47.053Z,6.60
2023-03-31T02:35:22.028Z,6.70
2023-03-31T02:37:49.674Z,6.70
2023-03-31T02:40:22.107Z,6.80
2023-03-31T02:42:49.902Z,6.90
2023-03-31T02:45:51.952Z,6.90
2023-03-31T02:48:30.785Z,6.90
2023-03-31T02:51:33.971Z,6.90
2023-03-31T02:54:44.098Z,6.90
2023-03-31T02:57:34.006Z,6.90
2023-03-31T03:00:52.960Z,6.80
2023-03-31T03:03:50.745Z,6.80
2023-03-31T03:07:13.348Z,6.90
2023-03-31T03:10:27.787Z,6.80
2023-03-31T03:13:55.293Z,6.90
2023-03-31T03:16:33.488Z,6.90
2023-03-31T03:19:06.075Z,6.90
2023-03-31T03:21:33.652Z,7.00
2023-03-31T03:24:01.554Z,7.00
2023-03-31T03:26:28.829Z,7.00
2023-03-31T03:28:57.545Z,7.00
2023-03-31T03:31:25.846Z,7.00
2023-03-31T03:33:53.664Z,7.00
2023-03-31T03:36:21.614Z,7.10
2023-03-31T03:38:48.606Z,7.10
2023-03-31T03:46:11.056Z,7.10
2023-03-31T03:51:06.412Z,7.20
2023-03-31T03:53:33.540Z,7.20
2023-03-31T03:56:01.446Z,7.20
2023-03-31T03:58:28.660Z,7.20
2023-03-31T04:00:56.894Z,7.20
2023-03-31T04:03:24.472Z,7.20
2023-03-31T04:05:51.563Z,7.30
2023-03-31T04:08:19.526Z,7.30
2023-03-31T04:10:49.172Z,7.40
2023-03-31T04:13:19.116Z,7.40
2023-03-31T04:15:47.033Z,7.50
2023-03-31T04:18:22.882Z,7.80
2023-03-31T04:21:06.247Z,7.80
2023-03-31T04:23:42.660Z,7.80
2023-03-31T04:26:10.437Z,7.90
2023-03-31T04:28:42.585Z,7.90
2023-03-31T04:31:15.630Z,8.00
2023-03-31T04:33:46.076Z,8.00
2023-03-31T04:38:56.150Z,8.00
2023-03-31T04:43:51.955Z,8.10
2023-03-31T04:48:46.681Z,8.10
2023-03-31T04:53:42.576Z,8.10
2023-03-31T05:01:08.667Z,8.10
2023-03-31T05:06:03.479Z,7.90
2023-03-31T05:08:30.657Z,7.90
2023-03-31T05:10:57.890Z,7.80
2023-03-31T05:13:25.218Z,7.80
2023-03-31T05:18:19.747Z,7.80
2023-03-31T05:20:46.812Z,7.80
2023-03-31T05:25:42.229Z,7.70
2023-03-31T05:28:12.176Z,7.80
2023-03-31T05:30:39.207Z,7.70
2023-03-31T05:33:06.185Z,7.70
2023-03-31T05:35:33.229Z,7.70
2023-03-31T05:40:27.608Z,7.80
2023-03-31T05:45:22.049Z,7.80
2023-03-31T05:50:16.790Z,7.80
2023-03-31T05:52:43.765Z,7.80
2023-03-31T05:55:11.370Z,8.00
2023-03-31T05:57:38.315Z,8.00
2023-03-31T06:00:10.292Z,8.10
2023-03-31T06:02:37.966Z,8.20
2023-03-31T06:05:05.623Z,8.30
2023-03-31T06:07:32.623Z,8.30
2023-03-31T06:12:28.326Z,8.30
2023-03-31T06:14:55.349Z,8.30
2023-03-31T06:17:22.318Z,8.30
2023-03-31T06:19:49.238Z,8.20
2023-03-31T06:22:16.389Z,8.20
2023-03-31T06:24:43.355Z,8.20
2023-03-31T06:27:10.623Z,8.30
2023-03-31T06:29:37.639Z,8.30
2023-03-31T06:32:05.103Z,8.30
2023-03-31T06:34:32.240Z,8.40
2023-03-31T06:36:59.259Z,8.40
2023-03-31T06:41:55.388Z,8.40
2023-03-31T06:44:27.461Z,8.30
2023-03-31T06:49:21.931Z,8.30
2023-03-31T06:51:48.966Z,8.20
2023-03-31T06:59:11.138Z,8.10
2023-03-31T07:01:39.072Z,8.10
2023-03-31T07:04:06.312Z,8.00
2023-03-31T07:06:33.322Z,8.00
2023-03-31T07:09:00.317Z,7.90
2023-03-31T07:11:27.295Z,7.90
2023-03-31T07:13:54.299Z,7.90
2023-03-31T07:16:21.441Z,7.90
2023-03-31T07:23:44.678Z,7.90
2023-03-31T07:26:11.707Z,7.90
2023-03-31T07:28:38.690Z,7.90
2023-03-31T07:31:13.721Z,7.90
2023-03-31T07:33:41.753Z,8.00
2023-03-31T07:36:13.328Z,8.00
2023-03-31T07:38:45.621Z,8.00
2023-03-31T07:41:21.973Z,8.00
2023-03-31T07:43:50.463Z,8.00
2023-03-31T07:46:26.043Z,8.00
2023-03-31T07:48:56.593Z,8.00
2023-03-31T07:51:27.128Z,8.00
2023-03-31T07:56:25.297Z,8.00
2023-03-31T07:58:55.100Z,8.10
2023-03-31T08:06:26.596Z,8.10
2023-03-31T08:11:21.758Z,8.10
2023-03-31T08:13:49.018Z,8.10
2023-03-31T08:16:16.359Z,8.10
2023-03-31T08:18:43.651Z,8.10
2023-03-31T08:23:38.293Z,8.10
2023-03-31T08:26:12.075Z,8.10
2023-03-31T08:28:39.392Z,8.10
2023-03-31T08:31:10.211Z,8.10
2023-03-31T08:33:38.730Z,8.10
2023-03-31T08:36:10.523Z,8.10
2023-03-31T08:38:41.728Z,8.10
2023-03-31T08:41:36.990Z,8.10
2023-03-31T08:44:17.877Z,8.10
2023-03-31T08:49:19.597Z,8.20
2023-03-31T08:52:02.760Z,8.30
2023-03-31T08:54:34.675Z,8.40
2023-03-31T08:57:06.351Z,8.50
2023-03-31T08:59:37.645Z,8.60
2023-03-31T09:02:29.940Z,8.70
2023-03-31T09:06:00.627Z,8.70
2023-03-31T09:08:42.806Z,8.70
2023-03-31T09:11:34.728Z,8.90
2023-03-31T09:14:36.040Z,8.80
2023-03-31T09:17:25.211Z,8.80
2023-03-31T09:20:13.327Z,8.90
2023-03-31T09:22:52.735Z,8.90
2023-03-31T09:25:27.384Z,9.00
2023-03-31T09:27:59.297Z,9.10
2023-03-31T09:30:36.704Z,9.10
2023-03-31T09:33:31.841Z,9.20
2023-03-31T09:36:01.161Z,9.20
2023-03-31T09:38:29.727Z,9.30
2023-03-31T09:41:03.142Z,9.40
2023-03-31T09:43:38.368Z,9.60
2023-03-31T09:46:30.331Z,9.70
2023-03-31T09:49:26.729Z,9.90
2023-03-31T09:52:26.769Z,10.00
2023-03-31T09:54:59.482Z,10.20
2023-03-31T09:57:34.859Z,11.20
2023-03-31T10:00:17.697Z,11.40
2023-03-31T10:02:57.343Z,11.70
2023-03-31T10:05:43.774Z,11.80
2023-03-31T10:08:17.566Z,11.80
2023-03-31T10:10:51.056Z,12.20
2023-03-31T10:13:26.652Z,12.90
2023-03-31T10:16:05.079Z,13.10
2023-03-31T10:18:37.533Z,13.40
2023-03-31T10:21:20.378Z,14.30
2023-03-31T10:23:50.002Z,14.40
2023-03-31T10:26:28.329Z,13.90
2023-03-31T10:28:59.594Z,13.40
2023-03-31T10:31:37.230Z,13.10
2023-03-31T10:34:16.947Z,13.30
2023-03-31T10:36:51.836Z,13.30
2023-03-31T10:39:20.397Z,12.60
2023-03-31T10:41:53.128Z,12.30
2023-03-31T10:44:37.747Z,12.30
2023-03-31T10:47:15.442Z,12.20
2023-03-31T10:49:45.026Z,12.10
2023-03-31T10:52:27.126Z,11.90
2023-03-31T10:55:00.138Z,11.80
2023-03-31T10:57:56.263Z,11.90
2023-03-31T11:01:03.607Z,13.00
2023-03-31T11:04:18.987Z,13.50
2023-03-31T11:07:12.961Z,13.30
2023-03-31T11:10:00.970Z,13.50
2023-03-31T11:12:44.431Z,14.90
2023-03-31T11:16:04.006Z,14.60
2023-03-31T11:19:14.836Z,14.70
2023-03-31T11:22:13.919Z,15.50
2023-03-31T11:25:22.462Z,14.80
2023-03-31T11:28:52.807Z,14.40
2023-03-31T11:31:53.042Z,14.60
2023-03-31T11:35:07.146Z,14.00
2023-03-31T11:38:15.813Z,13.90
2023-03-31T11:43:52.578Z,14.20
2023-03-31T11:46:27.971Z,14.30
2023-03-31T11:49:14.675Z,14.30
2023-03-31T11:51:53.351Z,14.50
2023-03-31T11:54:56.412Z,15.10
2023-03-31T11:57:46.858Z,16.50
2023-03-31T12:00:26.952Z,16.50
2023-03-31T12:03:40.039Z,17.10
2023-03-31T12:06:19.688Z,16.00
2023-03-31T12:09:17.560Z,14.60
2023-03-31T12:11:56.790Z,14.00
2023-03-31T12:14:38.549Z,12.30
2023-03-31T12:17:14.273Z,9.70
2023-03-31T12:19:56.628Z,9.30
2023-03-31T12:22:43.903Z,9.30
2023-03-31T12:25:23.238Z,9.10
2023-03-31T12:30:37.345Z,9.20
2023-03-31T12:33:31.782Z,10.70
2023-03-31T12:36:49.654Z,11.40
2023-03-31T12:42:46.178Z,11.80
2023-03-31T12:45:26.876Z,12.10
2023-03-31T12:48:26.801Z,12.40
2023-03-31T12:51:26.256Z,12.20
2023-03-31T12:54:48.737Z,12.00
2023-03-31T12:57:26.584Z,12.00
2023-03-31T13:00:17.033Z,12.00
2023-03-31T13:02:44.233Z,11.90
2023-03-31T13:05:36.306Z,12.20
2023-03-31T13:08:09.203Z,12.30
2023-03-31T13:10:59.498Z,12.50
2023-03-31T13:13:27.109Z,12.30
2023-03-31T13:15:57.938Z,11.80
2023-03-31T13:18:25.655Z,8.50
2023-03-31T13:21:12.224Z,7.30
2023-03-31T13:23:48.719Z,7.10
2023-03-31T13:26:34.049Z,7.10
2023-03-31T13:29:15.032Z,7.10
2023-03-31T13:32:00.789Z,7.10
2023-03-31T13:35:06.861Z,7.10
2023-03-31T13:38:09.873Z,7.20
2023-03-31T13:41:16.652Z,7.20
2023-03-31T13:44:38.356Z,7.40
2023-03-31T13:48:27.096Z,7.60
2023-03-31T13:51:31.069Z,7.70
2023-03-31T13:55:16.619Z,7.90
2023-03-31T13:58:39.094Z,8.10
2023-03-31T14:01:47.996Z,8.20
2023-03-31T14:05:20.240Z,8.90
2023-03-31T14:07:56.972Z,9.70
2023-03-31T14:10:36.854Z,10.40
2023-03-31T14:13:16.376Z,11.00
2023-03-31T14:15:55.354Z,11.40
2023-03-31T14:18:33.698Z,10.30
2023-03-31T14:21:24.767Z,10.10
2023-03-31T14:24:17.720Z,9.90
2023-03-31T14:27:55.509Z,9.90
2023-03-31T14:31:10.924Z,10.30
2023-03-31T14:34:42.825Z,10.60
2023-03-31T14:37:20.911Z,11.10
2023-03-31T14:39:56.380Z,11.20
2023-03-31T14:42:49.306Z,11.40
2023-03-31T14:45:20.494Z,11.30
2023-03-31T14:48:16.210Z,11.60
2023-03-31T14:50:46.700Z,12.30
2023-03-31T14:53:23.618Z,11.80
2023-03-31T14:55:59.308Z,12.30
2023-03-31T14:58:37.147Z,12.10
2023-03-31T15:01:07.865Z,11.50
2023-03-31T15:03:41.493Z,11.40
2023-03-31T15:06:09.894Z,11.30
2023-03-31T15:08:38.596Z,11.30
2023-03-31T15:11:16.598Z,11.20
2023-03-31T15:14:00.976Z,10.90
2023-03-31T15:16:43.605Z,10.60
2023-03-31T15:19:25.909Z,10.50
2023-03-31T15:22:01.855Z,10.40
2023-03-31T15:24:30.254Z,10.40
2023-03-31T15:27:44.646Z,10.50
2023-03-31T15:30:23.716Z,10.60
2023-03-31T15:32:51.457Z,10.30
2023-03-31T15:35:33.106Z,10.10
2023-03-31T15:38:08.253Z,10.00
2023-03-31T15:40:41.210Z,9.90
2023-03-31T15:43:50.710Z,9.90
2023-03-31T15:46:56.478Z,9.90
2023-03-31T15:49:27.525Z,10.00
2023-03-31T15:51:57.811Z,10.00
2023-03-31T15:54:37.182Z,10.10
2023-03-31T15:57:08.229Z,10.10
2023-03-31T15:59:55.900Z,10.20
2023-03-31T16:02:38.907Z,10.20
2023-03-31T16:05:10.940Z,10.20
2023-03-31T16:07:47.867Z,10.20
2023-03-31T16:10:23.091Z,10.30
2023-03-31T16:13:06.875Z,10.20
2023-03-31T16:15:43.386Z,10.20
2023-03-31T16:18:25.980Z,10.20
2023-03-31T16:20:59.096Z,10.20
2023-03-31T16:23:38.492Z,10.30
2023-03-31T16:26:06.929Z,10.30
2023-03-31T16:28:38.077Z,10.40
2023-03-31T16:31:39.901Z,10.40
2023-03-31T16:34:11.052Z,10.40
2023-03-31T16:36:38.623Z,10.30
2023-03-31T16:39:07.784Z,10.30
2023-03-31T16:41:38.143Z,10.20
2023-03-31T16:53:58.457Z,10.00
2023-03-31T16:56:27.029Z,9.90
2023-03-31T17:06:17.757Z,9.80
2023-03-31T17:08:44.758Z,9.80
2023-03-31T17:11:14.454Z,9.70
2023-03-31T17:13:44.795Z,9.70
2023-03-31T17:16:22.066Z,9.60
2023-03-31T17:18:56.434Z,9.60
2023-03-31T17:21:24.431Z,9.60
2023-03-31T17:23:51.462Z,9.60
2023-03-31T17:26:18.503Z,9.60
2023-03-31T17:31:17.172Z,9.50
2023-03-31T17:33:44.735Z,9.40
2023-03-31T17:36:12.372Z,9.30
2023-03-31T17:38:40.275Z,9.30
2023-03-31T17:41:12.737Z,9.30
2023-03-31T17:43:40.226Z,9.20
2023-03-31T17:46:11.861Z,9.20
2023-03-31T17:48:40.359Z,9.10
2023-03-31T17:51:16.070Z,9.10
2023-03-31T17:56:15.931Z,9.10
2023-03-31T18:06:12.508Z,9.10
2023-03-31T18:08:41.558Z,9.10
2023-03-31T18:11:10.117Z,9.10
2023-03-31T18:13:38.802Z,9.20
2023-03-31T18:16:12.723Z,9.10
2023-03-31T18:18:41.836Z,9.10
2023-03-31T18:21:13.033Z,9.10
2023-03-31T18:23:41.166Z,9.10
2023-03-31T18:26:11.719Z,9.10
2023-03-31T18:31:09.621Z,9.10
2023-03-31T18:33:37.437Z,9.00
2023-03-31T18:36:05.900Z,8.90
2023-03-31T18:38:34.471Z,8.90
2023-03-31T18:46:04.352Z,8.90
2023-03-31T18:48:32.269Z,8.90
2023-03-31T18:50:59.413Z,8.90
2023-03-31T18:53:26.970Z,8.90
2023-03-31T18:56:02.780Z,9.00
2023-03-31T18:58:31.487Z,9.00
2023-03-31T19:01:01.185Z,9.10
2023-03-31T19:03:28.896Z,9.00
2023-03-31T19:06:12.214Z,9.00
2023-03-31T19:08:40.415Z,9.00
2023-03-31T19:11:13.230Z,8.90
2023-03-31T19:13:42.823Z,8.80
2023-03-31T19:16:14.297Z,8.80
2023-03-31T19:18:43.134Z,8.90
2023-03-31T19:21:10.906Z,8.90
2023-03-31T19:23:38.155Z,8.90
2023-03-31T19:26:05.792Z,8.90
2023-03-31T19:31:04.731Z,9.00
2023-03-31T19:33:34.064Z,9.00
2023-03-31T19:36:01.104Z,9.00
2023-03-31T19:38:32.040Z,8.90
2023-03-31T19:41:06.370Z,8.90
2023-03-31T19:43:34.345Z,9.00
2023-03-31T19:46:01.911Z,9.00
2023-03-31T19:48:33.613Z,9.00
2023-03-31T19:51:08.853Z,9.00
2023-03-31T19:53:38.774Z,8.90
2023-03-31T19:56:17.255Z,8.80
2023-03-31T19:58:50.251Z,8.80
2023-03-31T20:01:26.346Z,8.70
2023-03-31T20:03:54.565Z,8.50
2023-03-31T20:06:27.337Z,8.30
2023-03-31T20:09:01.104Z,8.30
2023-03-31T20:11:31.981Z,8.20
2023-03-31T20:14:04.624Z,8.10
2023-03-31T20:16:32.264Z,8.10
2023-03-31T20:19:04.980Z,8.10
2023-03-31T20:21:36.843Z,8.10
2023-03-31T20:24:05.149Z,8.00
2023-03-31T20:26:34.533Z,8.00
2023-03-31T20:29:03.936Z,7.90
2023-03-31T20:31:37.398Z,7.90
2023-03-31T20:34:15.012Z,7.80
2023-03-31T20:36:45.943Z,7.80
2023-03-31T20:39:18.468Z,7.70
2023-03-31T20:41:51.835Z,7.60
2023-03-31T20:44:19.547Z,7.50
2023-03-31T20:46:47.552Z,7.40
2023-03-31T20:54:19.584Z,7.20
2023-03-31T20:56:47.075Z,7.00
2023-03-31T20:59:15.788Z,7.00
2023-03-31T21:01:45.190Z,7.00
2023-03-31T21:04:12.455Z,6.90
2023-03-31T21:06:45.237Z,6.90
2023-03-31T21:09:14.320Z,6.90
2023-03-31T21:14:14.643Z,6.80
2023-03-31T21:16:44.511Z,6.80
2023-03-31T21:24:11.693Z,6.80
2023-03-31T21:26:39.951Z,6.80
2023-03-31T21:29:06.979Z,6.80
2023-03-31T21:36:30.021Z,3.40
2023-03-31T21:38:57.760Z,6.90
2023-03-31T21:41:30.312Z,6.90
2023-03-31T21:44:00.898Z,6.90
2023-03-31T21:46:33.210Z,6.90
2023-03-31T21:53:56.305Z,7.00
2023-03-31T21:56:27.425Z,6.90
2023-03-31T21:58:56.947Z,7.00
2023-03-31T22:01:24.021Z,7.00
2023-03-31T22:03:51.688Z,6.90
2023-03-31T22:08:46.391Z,7.00
2023-03-31T22:13:41.433Z,7.00
2023-03-31T22:16:20.539Z,7.00
2023-03-31T22:18:49.932Z,7.00
2023-03-31T22:21:24.705Z,7.10
2023-03-31T22:23:56.084Z,7.10
2023-03-31T22:26:25.898Z,7.20
2023-03-31T22:28:53.295Z,7.20
2023-03-31T22:31:20.944Z,7.20
2023-03-31T22:33:49.026Z,7.20
2023-03-31T22:46:08.120Z,7.20
2023-03-31T22:48:35.277Z,7.20
2023-03-31T22:51:06.167Z,7.10
2023-03-31T22:53:33.797Z,7.20
2023-03-31T22:56:12.102Z,7.10
2023-03-31T22:58:39.383Z,7.10
2023-03-31T23:01:09.581Z,7.10
2023-03-31T23:03:37.224Z,7.10
2023-03-31T23:06:06.506Z,8.40
2023-03-31T23:08:36.768Z,7.20
2023-03-31T23:11:09.126Z,7.10
2023-03-31T23:13:36.740Z,7.10
2023-03-31T23:16:11.457Z,7.10
2023-03-31T23:18:45.769Z,7.20
2023-03-31T23:21:26.600Z,7.10
2023-03-31T23:23:58.538Z,7.10
2023-03-31T23:26:28.352Z,7.10
2023-03-31T23:28:57.272Z,7.10
2023-03-31T23:31:30.243Z,7.20
2023-03-31T23:33:59.750Z,7.20
2023-03-31T23:36:28.337Z,7.20
2023-03-31T23:38:57.063Z,7.10
2023-03-31T23:41:26.319Z,7.20
2023-03-31T23:43:55.732Z,7.20
2023-03-31T23:46:24.254Z,7.20
2023-03-31T23:51:19.232Z,7.20
2023-03-31T23:56:15.217Z,7.20
2023-03-31T23:58:44.833Z,7.20
